Time;durP1;ratioP1;P1;durP2;ratioP2;P2;SDS_P1;SDS_P2;PMS_P1;PMS_P2;Temp;Humidity;BMP_temperature;BMP_pressure;BME280_temperature;BME280_humidity;BME280_pressure;Samples;Min_cycle;Max_cycle;Signal;HPM_P1;HPM_P2
2021/08/08 00:02:41;;;;;;;9.23;3.07;;;;;;;;;;10373771;28;20036;-83
2021/08/08 00:07:41;;;;;;;6.17;3.03;;;;;;;;;;10374341;28;20098;-83
2021/08/08 00:12:42;;;;;;;9.50;3.67;;;;;;;;;;10373795;28;20026;-84
2021/08/08 00:17:43;;;;;;;8.02;3.40;;;;;;;;;;10372989;28;20550;-84
2021/08/08 00:22:43;;;;;;;9.38;2.92;;;;;;;;;;10373383;28;20431;-84
2021/08/08 00:27:44;;;;;;;6.63;3.17;;;;;;;;;;10378443;28;20471;-85
2021/08/08 00:32:44;;;;;;;9.77;2.88;;;;;;;;;;10381998;28;20030;-84
2021/08/08 00:37:44;;;;;;;7.75;2.92;;;;;;;;;;10380718;28;20065;-83
2021/08/08 00:42:46;;;;;;;6.85;3.05;;;;;;;;;;10381936;28;20030;-83
2021/08/08 00:47:47;;;;;;;9.27;3.00;;;;;;;;;;10380934;28;20038;-83
2021/08/08 00:52:47;;;;;;;7.32;2.63;;;;;;;;;;10381153;28;20029;-83
2021/08/08 00:57:48;;;;;;;9.60;3.13;;;;;;;;;;10380544;28;20030;-84
2021/08/08 01:02:52;;;;;;;6.73;2.80;;;;;;;;;;10380553;28;20030;-84
2021/08/08 01:07:55;;;;;;;4.35;2.58;;;;;;;;;;10379614;28;20551;-84
2021/08/08 01:12:56;;;;;;;7.13;2.80;;;;;;;;;;10378476;28;20041;-84
2021/08/08 01:17:57;;;;;;;6.57;3.15;;;;;;;;;;10377987;28;20036;-84
2021/08/08 01:23:01;;;;;;;7.78;3.05;;;;;;;;;;10380115;28;20025;-84
2021/08/08 01:28:02;;;;;;;4.53;2.22;;;;;;;;;;10394598;28;20041;-84
2021/08/08 01:33:04;;;;;;;7.22;2.80;;;;;;;;;;10379674;28;20037;-84
2021/08/08 01:38:06;;;;;;;7.07;2.58;;;;;;;;;;10377488;28;20034;-84
2021/08/08 01:43:10;;;;;;;5.88;2.95;;;;;;;;;;10377049;28;20030;-83
2021/08/08 01:48:11;;;;;;;7.90;3.08;;;;;;;;;;10377683;28;20034;-84
2021/08/08 01:53:12;;;;;;;7.68;3.08;;;;;;;;;;10377202;28;20025;-84
2021/08/08 01:58:12;;;;;;;8.73;2.78;;;;;;;;;;10378655;28;20059;-83
2021/08/08 02:03:13;;;;;;;12.27;2.55;;;;;;;;;;10378263;28;20168;-84
2021/08/08 02:08:13;;;;;;;7.40;2.77;;;;;;;;;;10377632;28;20042;-83
2021/08/08 02:13:13;;;;;;;5.73;2.90;;;;;;;;;;10378246;28;20797;-83
2021/08/08 02:18:14;;;;;;;11.97;2.70;;;;;;;;;;10377488;28;20091;-84
2021/08/08 02:23:14;;;;;;;7.18;2.70;;;;;;;;;;10377706;28;20097;-84
2021/08/08 02:28:15;;;;;;;7.57;2.90;;;;;;;;;;10376025;28;20030;-83
2021/08/08 02:33:15;;;;;;;6.17;2.63;;;;;;;;;;10377521;28;20037;-83
2021/08/08 02:38:16;;;;;;;14.83;3.40;;;;;;;;;;10375155;28;20499;-83
2021/08/08 02:43:16;;;;;;;7.47;3.23;;;;;;;;;;10376404;28;20349;-83
2021/08/08 02:48:17;;;;;;;3.97;2.67;;;;;;;;;;10376147;28;20049;-83
2021/08/08 02:53:18;;;;;;;10.82;2.90;;;;;;;;;;10376563;28;20035;-83
2021/08/08 02:58:18;;;;;;;16.13;3.60;;;;;;;;;;10375265;28;20384;-84
2021/08/08 03:03:19;;;;;;;7.53;3.13;;;;;;;;;;10376011;28;20486;-83
2021/08/08 03:08:19;;;;;;;3.83;2.50;;;;;;;;;;10375534;28;20554;-84
2021/08/08 03:13:19;;;;;;;8.83;2.97;;;;;;;;;;10376302;28;20021;-84
2021/08/08 03:18:20;;;;;;;6.30;2.83;;;;;;;;;;10374688;28;20030;-84
2021/08/08 03:23:20;;;;;;;8.17;2.90;;;;;;;;;;10375160;28;20113;-83
2021/08/08 03:28:21;;;;;;;6.22;2.60;;;;;;;;;;10373328;28;20026;-83
2021/08/08 03:33:21;;;;;;;6.97;2.88;;;;;;;;;;10374583;28;20034;-83
2021/08/08 03:38:21;;;;;;;8.13;2.50;;;;;;;;;;10374573;28;20121;-83
2021/08/08 03:43:22;;;;;;;6.40;2.70;;;;;;;;;;10390143;28;20080;-83
2021/08/08 03:48:22;;;;;;;8.97;3.20;;;;;;;;;;10375065;28;20042;-83
2021/08/08 03:53:23;;;;;;;6.63;2.80;;;;;;;;;;10374725;28;20392;-84
2021/08/08 03:58:29;;;;;;;12.87;2.90;;;;;;;;;;10373741;28;20069;-83
2021/08/08 04:03:30;;;;;;;5.53;2.90;;;;;;;;;;10374177;28;20026;-83
2021/08/08 04:08:30;;;;;;;5.35;2.65;;;;;;;;;;10367306;23;20070;-83
2021/08/08 04:13:31;;;;;;;5.18;3.08;;;;;;;;;;10332724;28;20053;-83
2021/08/08 04:18:31;;;;;;;6.03;3.03;;;;;;;;;;10332743;28;20113;-83
2021/08/08 04:23:32;;;;;;;6.43;2.92;;;;;;;;;;10348624;28;20042;-84
2021/08/08 04:28:39;;;;;;;14.00;3.30;;;;;;;;;;10333618;28;20380;-83
2021/08/08 04:33:39;;;;;;;9.52;2.92;;;;;;;;;;10333225;28;20424;-80
2021/08/08 04:38:40;;;;;;;15.33;2.67;;;;;;;;;;10332356;28;20038;-80
2021/08/08 04:43:40;;;;;;;8.80;2.80;;;;;;;;;;10332354;28;20053;-80
2021/08/08 04:48:41;;;;;;;3.93;2.23;;;;;;;;;;10332167;28;20129;-80
2021/08/08 04:53:41;;;;;;;8.67;2.93;;;;;;;;;;10332508;28;20027;-80
2021/08/08 04:58:41;;;;;;;3.33;2.00;;;;;;;;;;10331984;28;20038;-80
2021/08/08 05:03:42;;;;;;;5.00;2.07;;;;;;;;;;10333343;28;20038;-80
2021/08/08 05:08:42;;;;;;;4.33;2.07;;;;;;;;;;10333106;28;20039;-80
2021/08/08 05:13:42;;;;;;;8.13;2.40;;;;;;;;;;10335547;28;20507;-80
2021/08/08 05:18:43;;;;;;;10.33;2.07;;;;;;;;;;10339384;28;20456;-80
2021/08/08 05:23:43;;;;;;;6.10;2.30;;;;;;;;;;10339709;28;20464;-80
2021/08/08 05:28:44;;;;;;;3.67;2.03;;;;;;;;;;10339159;28;20045;-80
2021/08/08 05:33:44;;;;;;;5.32;2.00;;;;;;;;;;10338936;28;20038;-79
2021/08/08 05:38:44;;;;;;;7.63;2.23;;;;;;;;;;10338829;28;20033;-79
2021/08/08 05:43:45;;;;;;;3.63;2.10;;;;;;;;;;10338889;28;20080;-80
2021/08/08 05:48:45;;;;;;;3.73;2.20;;;;;;;;;;10338283;28;20457;-79
2021/08/08 05:53:46;;;;;;;8.68;2.20;;;;;;;;;;10337737;28;20037;-80
2021/08/08 05:58:46;;;;;;;4.13;2.00;;;;;;;;;;10337856;28;20061;-80
2021/08/08 06:03:46;;;;;;;2.77;1.80;;;;;;;;;;10338180;28;20027;-79
2021/08/08 06:08:47;;;;;;;3.10;2.10;;;;;;;;;;10336710;28;20464;-80
2021/08/08 06:13:47;;;;;;;4.60;2.00;;;;;;;;;;10336957;28;20045;-79
2021/08/08 06:18:48;;;;;;;6.30;2.35;;;;;;;;;;10336969;28;20460;-79
2021/08/08 06:23:48;;;;;;;9.18;1.73;;;;;;;;;;10336894;28;20464;-79
2021/08/08 06:28:49;;;;;;;3.03;2.10;;;;;;;;;;10336102;28;20042;-79
2021/08/08 06:33:49;;;;;;;4.20;2.05;;;;;;;;;;10336678;28;20023;-79
2021/08/08 06:38:52;;;;;;;4.47;1.70;;;;;;;;;;10336372;28;20034;-79
2021/08/08 06:43:52;;;;;;;2.90;1.90;;;;;;;;;;10336345;28;20036;-79
2021/08/08 06:48:53;;;;;;;4.07;2.15;;;;;;;;;;10335091;28;20044;-79
2021/08/08 06:53:53;;;;;;;2.35;1.50;;;;;;;;;;10335888;28;20038;-79
2021/08/08 06:58:54;;;;;;;6.07;1.80;;;;;;;;;;10334865;28;20371;-80
2021/08/08 07:03:54;;;;;;;4.28;1.83;;;;;;;;;;10335620;28;20065;-79
2021/08/08 07:08:55;;;;;;;2.92;1.73;;;;;;;;;;10335137;28;20042;-80
2021/08/08 07:13:56;;;;;;;2.45;1.77;;;;;;;;;;10334624;28;20088;-80
2021/08/08 07:18:56;;;;;;;18.80;2.28;;;;;;;;;;10335096;28;20027;-80
2021/08/08 07:23:58;;;;;;;3.03;1.87;;;;;;;;;;10334998;28;20376;-80
2021/08/08 07:28:58;;;;;;;3.13;1.75;;;;;;;;;;10334539;28;20471;-79
2021/08/08 07:33:59;;;;;;;4.57;2.20;;;;;;;;;;10332500;28;20042;-79
2021/08/08 07:39:00;;;;;;;5.10;2.15;;;;;;;;;;10333151;28;20100;-79
2021/08/08 07:44:00;;;;;;;4.90;2.15;;;;;;;;;;10334071;28;20037;-81
2021/08/08 07:49:00;;;;;;;4.13;1.87;;;;;;;;;;10333988;28;20030;-81
2021/08/08 07:54:01;;;;;;;6.03;2.90;;;;;;;;;;10337967;28;20027;-83
2021/08/08 07:59:01;;;;;;;9.20;3.03;;;;;;;;;;10332198;28;20041;-83
2021/08/08 08:04:02;;;;;;;9.93;2.77;;;;;;;;;;10333631;28;20062;-83
2021/08/08 08:09:02;;;;;;;9.25;3.28;;;;;;;;;;10333163;28;20435;-84
2021/08/08 08:14:03;;;;;;;12.50;3.17;;;;;;;;;;10332179;28;20940;-83
2021/08/08 08:19:03;;;;;;;8.27;3.33;;;;;;;;;;10328939;28;20046;-83
2021/08/08 08:24:04;;;;;;;7.93;3.20;;;;;;;;;;10333021;28;20455;-83
2021/08/08 08:29:05;;;;;;;9.57;3.58;;;;;;;;;;10332435;28;20463;-84
2021/08/08 08:34:06;;;;;;;7.03;2.83;;;;;;;;;;10332574;28;20036;-84
2021/08/08 08:39:06;;;;;;;12.68;3.47;;;;;;;;;;10332538;28;20037;-83
2021/08/08 08:44:07;;;;;;;14.13;3.08;;;;;;;;;;10331650;28;20034;-84
2021/08/08 08:49:09;;;;;;;9.10;3.23;;;;;;;;;;10337904;28;20026;-84
2021/08/08 08:54:10;;;;;;;8.80;3.20;;;;;;;;;;10339414;28;20046;-84
2021/08/08 08:59:11;;;;;;;15.82;3.65;;;;;;;;;;10355575;28;20415;-84
2021/08/08 09:04:11;;;;;;;11.55;3.33;;;;;;;;;;10338918;28;20096;-84
2021/08/08 09:09:12;;;;;;;9.82;3.13;;;;;;;;;;10339267;28;20471;-83
2021/08/08 09:14:15;;;;;;;12.57;3.50;;;;;;;;;;10338898;28;20038;-82
2021/08/08 09:19:21;;;;;;;11.32;3.50;;;;;;;;;;10338141;28;20061;-84
2021/08/08 09:24:28;;;;;;;14.88;4.07;;;;;;;;;;10368202;28;20034;-83
2021/08/08 09:29:29;;;;;;;10.15;3.40;;;;;;;;;;10353102;28;20058;-83
2021/08/08 09:34:31;;;;;;;9.20;3.22;;;;;;;;;;10352645;28;20073;-83
2021/08/08 09:39:40;;;;;;;7.43;2.97;;;;;;;;;;10350490;28;20034;-83
2021/08/08 09:44:50;;;;;;;11.63;3.80;;;;;;;;;;10337886;28;20022;-83
2021/08/08 09:50:04;;;;;;;7.45;3.55;;;;;;;;;;10335751;28;20117;-84
2021/08/08 09:55:18;;;;;;;9.73;2.65;;;;;;;;;;10336657;28;20030;-83
2021/08/08 10:00:23;;;;;;;7.72;3.10;;;;;;;;;;10336457;28;20042;-83
2021/08/08 10:05:25;;;;;;;8.20;3.40;;;;;;;;;;10336867;28;20022;-83
2021/08/08 10:10:26;;;;;;;9.27;3.33;;;;;;;;;;10338490;28;20090;-83
2021/08/08 10:15:27;;;;;;;15.02;3.22;;;;;;;;;;10332513;28;20120;-83
2021/08/08 10:20:31;;;;;;;8.30;2.78;;;;;;;;;;10334399;28;20030;-83
2021/08/08 10:25:31;;;;;;;8.93;3.13;;;;;;;;;;10336759;28;20526;-84
2021/08/08 10:30:33;;;;;;;10.10;3.10;;;;;;;;;;10336181;28;20065;-84
2021/08/08 10:35:51;;;;;;;11.10;2.90;;;;;;;;;;10335375;28;20491;-84
2021/08/08 10:40:52;;;;;;;12.80;3.47;;;;;;;;;;10335029;28;20042;-84
2021/08/08 10:46:06;;;;;;;10.18;3.25;;;;;;;;;;10335734;28;20045;-84
2021/08/08 10:51:18;;;;;;;7.10;2.80;;;;;;;;;;10333950;28;20034;-84
2021/08/08 10:56:19;;;;;;;9.55;3.63;;;;;;;;;;10335650;28;20042;-84
2021/08/08 11:01:21;;;;;;;14.83;3.47;;;;;;;;;;10334574;28;20180;-84
2021/08/08 11:06:28;;;;;;;8.68;3.00;;;;;;;;;;10334026;28;20034;-84
2021/08/08 11:11:30;;;;;;;7.63;2.90;;;;;;;;;;10330886;28;20061;-84
2021/08/08 11:16:31;;;;;;;8.40;3.00;;;;;;;;;;10332211;28;20034;-84
2021/08/08 11:21:31;;;;;;;14.23;2.90;;;;;;;;;;10335349;28;20030;-84
2021/08/08 11:26:32;;;;;;;13.15;3.42;;;;;;;;;;10333884;28;20077;-84
2021/08/08 11:31:38;;;;;;;14.75;3.58;;;;;;;;;;10330179;28;20437;-84
2021/08/08 11:36:41;;;;;;;12.02;3.25;;;;;;;;;;10332942;28;20045;-84
2021/08/08 11:41:42;;;;;;;10.63;3.20;;;;;;;;;;10331911;28;20031;-83
2021/08/08 11:46:50;;;;;;;8.57;3.10;;;;;;;;;;10333275;28;20030;-84
2021/08/08 11:51:58;;;;;;;16.85;3.58;;;;;;;;;;10320437;28;20085;-83
2021/08/08 11:57:00;;;;;;;9.30;3.25;;;;;;;;;;10320355;28;20544;-83
2021/08/08 12:02:05;;;;;;;6.88;2.95;;;;;;;;;;10332826;28;20460;-83
2021/08/08 12:07:07;;;;;;;8.25;3.47;;;;;;;;;;10333054;28;20504;-84
2021/08/08 12:12:07;;;;;;;6.47;3.30;;;;;;;;;;10328396;28;20675;-83
2021/08/08 12:17:14;;;;;;;7.20;2.90;;;;;;;;;;10331499;28;20032;-83
2021/08/08 12:22:16;;;;;;;5.22;2.60;;;;;;;;;;10335403;28;20069;-83
2021/08/08 12:27:29;;;;;;;10.38;3.35;;;;;;;;;;10340801;28;20061;-83
2021/08/08 12:32:34;;;;;;;6.20;3.15;;;;;;;;;;10340916;28;20046;-83
2021/08/08 12:37:34;;;;;;;8.80;2.75;;;;;;;;;;10340968;28;20037;-83
2021/08/08 12:42:35;;;;;;;5.53;2.75;;;;;;;;;;10340203;28;20384;-83
2021/08/08 12:47:35;;;;;;;6.50;2.58;;;;;;;;;;10354067;28;20061;-84
2021/08/08 12:52:36;;;;;;;8.02;2.78;;;;;;;;;;10336301;28;20034;-83
2021/08/08 12:57:36;;;;;;;7.57;2.58;;;;;;;;;;10334823;28;20456;-84
2021/08/08 13:02:37;;;;;;;7.00;2.67;;;;;;;;;;10337161;28;20488;-83
2021/08/08 13:07:38;;;;;;;7.25;2.88;;;;;;;;;;10349222;28;20046;-84
2021/08/08 13:12:41;;;;;;;4.13;2.30;;;;;;;;;;10336081;28;20035;-83
2021/08/08 13:17:41;;;;;;;6.53;2.67;;;;;;;;;;10333393;28;20026;-83
2021/08/08 13:22:42;;;;;;;5.93;2.45;;;;;;;;;;10336648;28;20030;-83
2021/08/08 13:27:43;;;;;;;10.35;3.03;;;;;;;;;;10337486;28;20028;-83
2021/08/08 13:32:43;;;;;;;4.93;2.43;;;;;;;;;;10341276;28;20038;-83
2021/08/08 13:37:44;;;;;;;5.63;2.30;;;;;;;;;;10337964;28;20045;-83
2021/08/08 13:42:44;;;;;;;9.07;2.53;;;;;;;;;;10337130;28;20057;-83
2021/08/08 13:47:46;;;;;;;6.10;2.60;;;;;;;;;;10338080;28;20030;-83
2021/08/08 13:52:46;;;;;;;6.60;2.35;;;;;;;;;;10336720;28;20037;-83
2021/08/08 13:57:49;;;;;;;6.93;2.60;;;;;;;;;;10336878;28;20041;-83
2021/08/08 14:02:50;;;;;;;5.18;2.67;;;;;;;;;;10337196;28;20463;-83
2021/08/08 14:07:50;;;;;;;4.57;2.40;;;;;;;;;;10337162;28;20057;-82
2021/08/08 14:12:51;;;;;;;5.10;2.93;;;;;;;;;;10337556;28;20390;-83
2021/08/08 14:17:51;;;;;;;6.63;2.67;;;;;;;;;;10336450;28;20160;-84
2021/08/08 14:22:52;;;;;;;9.03;2.50;;;;;;;;;;10335702;28;20041;-84
2021/08/08 14:27:53;;;;;;;4.82;2.30;;;;;;;;;;10335714;28;20452;-84
2021/08/08 14:32:54;;;;;;;12.48;2.58;;;;;;;;;;10339741;28;20045;-84
2021/08/08 14:37:54;;;;;;;6.72;2.45;;;;;;;;;;10335374;28;20033;-83
2021/08/08 14:42:54;;;;;;;5.90;2.20;;;;;;;;;;10336220;28;20451;-83
2021/08/08 14:47:55;;;;;;;6.60;2.00;;;;;;;;;;10334469;28;20030;-83
2021/08/08 14:52:55;;;;;;;3.97;2.20;;;;;;;;;;10325133;28;20042;-83
2021/08/08 14:57:56;;;;;;;4.70;2.37;;;;;;;;;;10331782;28;20061;-83
2021/08/08 15:02:56;;;;;;;7.60;2.00;;;;;;;;;;10333740;28;20027;-83
2021/08/08 15:07:58;;;;;;;4.15;1.98;;;;;;;;;;10333855;28;20076;-83
2021/08/08 15:12:58;;;;;;;5.87;2.10;;;;;;;;;;10334997;28;20113;-83
2021/08/08 15:18:01;;;;;;;3.33;1.67;;;;;;;;;;10332338;28;20496;-84
2021/08/08 15:23:02;;;;;;;2.58;1.92;;;;;;;;;;10334492;28;20030;-84
2021/08/08 15:28:03;;;;;;;6.35;2.22;;;;;;;;;;10333457;28;20053;-84
2021/08/08 15:33:03;;;;;;;5.05;2.10;;;;;;;;;;10332786;28;20463;-82
2021/08/08 15:38:03;;;;;;;5.00;2.67;;;;;;;;;;10324745;28;20030;-82
2021/08/08 15:43:04;;;;;;;6.07;2.70;;;;;;;;;;10332554;28;20540;-83
2021/08/08 15:48:04;;;;;;;4.43;2.58;;;;;;;;;;10338328;28;20038;-83
2021/08/08 15:53:05;;;;;;;5.22;3.00;;;;;;;;;;10346192;28;20126;-83
2021/08/08 15:58:05;;;;;;;4.20;2.60;;;;;;;;;;10342224;28;20034;-86
2021/08/08 16:03:06;;;;;;;7.47;2.60;;;;;;;;;;10345273;28;20034;-84
2021/08/08 16:08:07;;;;;;;4.00;2.47;;;;;;;;;;10350041;23;20058;-83
2021/08/08 16:13:07;;;;;;;4.22;2.65;;;;;;;;;;10373189;28;20535;-83
2021/08/08 16:18:08;;;;;;;6.67;2.83;;;;;;;;;;10373375;28;20102;-83
2021/08/08 16:23:08;;;;;;;8.87;2.87;;;;;;;;;;10372908;28;20084;-82
2021/08/08 16:28:09;;;;;;;6.18;2.92;;;;;;;;;;10373616;28;20068;-83
2021/08/08 16:33:09;;;;;;;8.77;3.08;;;;;;;;;;10373480;28;20053;-83
2021/08/08 16:38:09;;;;;;;5.45;3.10;;;;;;;;;;10372958;28;20030;-82
2021/08/08 16:43:10;;;;;;;8.63;2.90;;;;;;;;;;10373153;28;20087;-82
2021/08/08 16:48:10;;;;;;;6.80;3.27;;;;;;;;;;10372396;28;20041;-84
2021/08/08 16:53:11;;;;;;;15.43;3.83;;;;;;;;;;10373393;28;20486;-83
2021/08/08 16:58:11;;;;;;;6.90;3.27;;;;;;;;;;10373102;28;20455;-84
2021/08/08 17:03:11;;;;;;;16.63;2.60;;;;;;;;;;10366552;28;20448;-84
2021/08/08 17:08:12;;;;;;;8.10;2.67;;;;;;;;;;10374438;28;20050;-84
2021/08/08 17:13:12;;;;;;;9.50;3.17;;;;;;;;;;10380220;28;20036;-85
2021/08/08 17:18:13;;;;;;;8.53;3.17;;;;;;;;;;10379575;28;20475;-84
2021/08/08 17:23:15;;;;;;;7.63;2.90;;;;;;;;;;10379495;28;20455;-84
2021/08/08 17:28:15;;;;;;;8.25;3.05;;;;;;;;;;10377902;28;20034;-84
2021/08/08 17:33:16;;;;;;;6.67;2.80;;;;;;;;;;10378934;28;20032;-84
2021/08/08 17:38:17;;;;;;;9.27;3.10;;;;;;;;;;10379065;28;20459;-84
2021/08/08 17:43:17;;;;;;;5.50;2.88;;;;;;;;;;10374317;28;20029;-84
2021/08/08 17:48:17;;;;;;;6.33;2.70;;;;;;;;;;10382932;28;20045;-84
2021/08/08 17:53:18;;;;;;;9.23;3.20;;;;;;;;;;10378643;28;20519;-84
2021/08/08 17:58:18;;;;;;;6.32;3.05;;;;;;;;;;10378209;28;20048;-83
2021/08/08 18:03:19;;;;;;;8.67;3.00;;;;;;;;;;10378163;28;20115;-84
2021/08/08 18:08:20;;;;;;;11.70;3.63;;;;;;;;;;10380055;28;20038;-84
2021/08/08 18:13:21;;;;;;;6.82;2.60;;;;;;;;;;10385613;28;20461;-84
2021/08/08 18:18:21;;;;;;;5.57;2.73;;;;;;;;;;10382424;28;20120;-84
2021/08/08 18:23:21;;;;;;;8.93;3.20;;;;;;;;;;10383496;28;20030;-84
2021/08/08 18:28:22;;;;;;;11.37;3.83;;;;;;;;;;10378731;28;20030;-84
2021/08/08 18:33:22;;;;;;;7.63;3.03;;;;;;;;;;10377325;28;20022;-84
2021/08/08 18:38:23;;;;;;;9.07;3.17;;;;;;;;;;10375921;28;20985;-83
2021/08/08 18:43:23;;;;;;;8.83;3.10;;;;;;;;;;10376294;28;20439;-84
2021/08/08 18:48:25;;;;;;;7.57;3.43;;;;;;;;;;10376255;28;20057;-83
2021/08/08 18:53:25;;;;;;;11.35;3.45;;;;;;;;;;10376386;28;20491;-84
2021/08/08 18:58:26;;;;;;;11.53;3.37;;;;;;;;;;10376356;28;20064;-83
2021/08/08 19:03:27;;;;;;;10.00;2.83;;;;;;;;;;10376513;28;21011;-83
2021/08/08 19:08:27;;;;;;;5.22;2.70;;;;;;;;;;10373042;28;20056;-84
2021/08/08 19:13:27;;;;;;;4.97;2.60;;;;;;;;;;10375435;28;20108;-83
2021/08/08 19:18:28;;;;;;;8.67;3.10;;;;;;;;;;10374632;28;20479;-83
2021/08/08 19:23:28;;;;;;;9.88;2.63;;;;;;;;;;10375892;28;20467;-83
2021/08/08 19:28:29;;;;;;;7.63;2.97;;;;;;;;;;10375049;28;20391;-84
2021/08/08 19:33:29;;;;;;;10.63;3.70;;;;;;;;;;10373931;28;20026;-83
2021/08/08 19:38:30;;;;;;;7.50;3.23;;;;;;;;;;10370964;28;20826;-83
2021/08/08 19:43:30;;;;;;;10.38;3.25;;;;;;;;;;10373159;28;20466;-83
2021/08/08 19:48:30;;;;;;;7.70;2.95;;;;;;;;;;10373688;28;20038;-84
2021/08/08 19:53:31;;;;;;;11.20;3.03;;;;;;;;;;10373825;28;20040;-84
2021/08/08 19:58:31;;;;;;;9.27;2.90;;;;;;;;;;10374418;28;20065;-83
2021/08/08 20:03:32;;;;;;;16.38;3.53;;;;;;;;;;10372979;28;20483;-83
2021/08/08 20:08:32;;;;;;;6.70;3.00;;;;;;;;;;10373918;28;20134;-83
2021/08/08 20:13:33;;;;;;;7.93;3.60;;;;;;;;;;10374434;28;20436;-83
2021/08/08 20:18:33;;;;;;;10.47;3.50;;;;;;;;;;10373154;28;20038;-83
2021/08/08 20:23:34;;;;;;;10.07;3.20;;;;;;;;;;10373717;28;20478;-83
2021/08/08 20:28:34;;;;;;;11.60;2.97;;;;;;;;;;10374346;28;20030;-83
2021/08/08 20:33:34;;;;;;;9.13;3.00;;;;;;;;;;10372819;28;20112;-83
2021/08/08 20:38:35;;;;;;;5.53;2.93;;;;;;;;;;10372551;28;20500;-84
2021/08/08 20:43:35;;;;;;;8.53;3.20;;;;;;;;;;10377359;28;20459;-86
2021/08/08 20:48:36;;;;;;;8.05;3.70;;;;;;;;;;10381323;28;20030;-86
2021/08/08 20:53:36;;;;;;;7.97;3.70;;;;;;;;;;10381776;28;20454;-87
2021/08/08 20:58:37;;;;;;;9.27;4.22;;;;;;;;;;10367752;28;20029;-85
2021/08/08 21:03:37;;;;;;;7.20;3.77;;;;;;;;;;10380550;28;20442;-85
2021/08/08 21:08:37;;;;;;;10.17;3.63;;;;;;;;;;10380862;28;20052;-85
2021/08/08 21:13:38;;;;;;;10.33;4.20;;;;;;;;;;10390053;28;20061;-84
2021/08/08 21:18:38;;;;;;;8.23;4.13;;;;;;;;;;10389753;28;20038;-84
2021/08/08 21:23:39;;;;;;;6.67;3.50;;;;;;;;;;10393514;28;20519;-84
2021/08/08 21:28:39;;;;;;;8.80;3.88;;;;;;;;;;10394650;28;20081;-84
2021/08/08 21:33:39;;;;;;;8.97;3.50;;;;;;;;;;10384301;28;20030;-84
2021/08/08 21:38:40;;;;;;;10.40;3.73;;;;;;;;;;10378229;28;20459;-84
2021/08/08 21:43:40;;;;;;;7.10;3.57;;;;;;;;;;10384209;28;20034;-84
2021/08/08 21:48:40;;;;;;;9.07;3.17;;;;;;;;;;10375398;28;20079;-83
2021/08/08 21:53:41;;;;;;;4.90;3.20;;;;;;;;;;10362066;28;20058;-84
